createdAt,value
2023-01-08T00:01:10.303Z,8.78
2023-01-08T00:04:35.611Z,8.68
2023-01-08T00:08:01.143Z,8.61
2023-01-08T00:11:26.543Z,8.54
2023-01-08T00:14:51.926Z,8.54
2023-01-08T00:18:17.282Z,8.52
2023-01-08T00:21:42.760Z,8.48
2023-01-08T00:25:08.210Z,8.44
2023-01-08T00:28:33.921Z,8.42
2023-01-08T00:31:59.475Z,8.41
2023-01-08T00:35:33.596Z,8.45
2023-01-08T00:38:59.324Z,8.5
2023-01-08T00:42:24.707Z,8.53
2023-01-08T00:45:50.546Z,8.56
2023-01-08T00:49:16.542Z,8.56
2023-01-08T00:52:42.001Z,8.62
2023-01-08T01:10:54.048Z,8.69
2023-01-08T01:15:06.052Z,8.68
2023-01-08T01:20:14.300Z,8.7
2023-01-08T01:27:47.383Z,8.68
2023-01-08T01:31:12.773Z,8.6
2023-01-08T01:34:38.145Z,8.53
2023-01-08T01:38:03.476Z,8.5
2023-01-08T01:41:28.786Z,8.5
2023-01-08T01:44:54.327Z,8.51
2023-01-08T01:48:19.843Z,8.48
2023-01-08T01:51:45.351Z,8.47
2023-01-08T01:55:10.856Z,8.48
2023-01-08T01:58:36.232Z,8.48
2023-01-08T02:02:02.011Z,8.47
2023-01-08T02:05:27.099Z,8.51
2023-01-08T02:08:52.430Z,8.58
2023-01-08T02:12:17.822Z,8.62
2023-01-08T02:15:43.192Z,8.61
2023-01-08T02:19:08.897Z,8.61
2023-01-08T02:22:34.114Z,8.63
2023-01-08T02:25:59.547Z,8.62
2023-01-08T02:29:24.893Z,8.6
2023-01-08T02:32:50.351Z,8.6
2023-01-08T02:36:15.793Z,8.62
2023-01-08T02:39:40.993Z,8.67
2023-01-08T02:43:06.306Z,8.69
2023-01-08T02:46:31.743Z,8.69
2023-01-08T02:49:57.018Z,8.7
2023-01-08T02:53:22.642Z,8.69
2023-01-08T02:56:47.843Z,8.68
2023-01-08T03:00:13.135Z,8.64
2023-01-08T03:03:38.496Z,8.62
2023-01-08T03:07:04.336Z,8.61
2023-01-08T03:10:30.536Z,8.64
2023-01-08T03:13:55.312Z,8.68
2023-01-08T03:17:20.712Z,8.68
2023-01-08T03:20:46.145Z,8.71
2023-01-08T03:24:11.477Z,8.74
2023-01-08T03:27:36.937Z,8.75
2023-01-08T03:31:02.235Z,8.75
2023-01-08T03:34:27.658Z,8.73
2023-01-08T03:37:53.234Z,8.68
2023-01-08T03:41:18.630Z,8.63
2023-01-08T03:44:44.241Z,8.62
2023-01-08T03:48:09.666Z,8.66
2023-01-08T03:51:35.349Z,8.69
2023-01-08T03:55:00.857Z,8.71
2023-01-08T03:58:26.373Z,8.72
2023-01-08T04:01:53.067Z,8.7
2023-01-08T04:05:18.323Z,8.72
2023-01-08T04:08:43.872Z,8.73
2023-01-08T04:12:09.259Z,8.7
2023-01-08T04:15:34.844Z,8.69
2023-01-08T04:19:00.456Z,8.69
2023-01-08T04:22:25.735Z,8.72
2023-01-08T04:25:51.235Z,8.72
2023-01-08T04:29:16.616Z,8.68
2023-01-08T04:32:41.955Z,8.66
2023-01-08T04:36:07.535Z,8.62
2023-01-08T04:39:32.993Z,8.63
2023-01-08T04:42:58.558Z,8.63
2023-01-08T04:46:24.107Z,8.68
2023-01-08T04:49:49.492Z,8.71
2023-01-08T04:53:15.022Z,8.72
2023-01-08T04:56:40.654Z,8.72
2023-01-08T05:00:06.057Z,8.73
2023-01-08T05:03:31.552Z,8.77
2023-01-08T05:06:56.832Z,8.77
2023-01-08T05:10:22.394Z,8.74
2023-01-08T05:13:47.588Z,8.67
2023-01-08T05:17:12.963Z,8.64
2023-01-08T05:20:38.373Z,8.62
2023-01-08T05:24:03.734Z,8.57
2023-01-08T05:27:29.229Z,8.54
2023-01-08T05:30:54.568Z,8.52
2023-01-08T05:34:19.884Z,8.55
2023-01-08T05:37:45.581Z,8.58
2023-01-08T05:41:11.003Z,8.62
2023-01-08T05:44:36.723Z,8.69
2023-01-08T05:48:02.123Z,8.78
2023-01-08T05:51:27.609Z,8.83
2023-01-08T05:54:53.059Z,8.9
2023-01-08T05:58:18.537Z,8.96
2023-01-08T06:01:44.515Z,9.05
2023-01-08T06:05:09.621Z,9.1
2023-01-08T06:08:35.161Z,9.11
2023-01-08T06:12:00.653Z,9.2
2023-01-08T06:15:26.365Z,9.3
2023-01-08T06:18:51.992Z,9.38
2023-01-08T06:22:17.725Z,9.43
2023-01-08T06:25:44.248Z,9.49
2023-01-08T06:29:09.823Z,9.51
2023-01-08T06:32:35.240Z,9.51
2023-01-08T06:36:00.846Z,9.5
2023-01-08T06:39:26.126Z,9.52
2023-01-08T06:42:51.637Z,9.56
2023-01-08T06:46:17.120Z,9.56
2023-01-08T06:49:42.467Z,9.58
2023-01-08T06:53:07.873Z,9.6
2023-01-08T06:56:42.686Z,9.64
2023-01-08T06:59:58.882Z,9.68
2023-01-08T07:03:24.371Z,9.7
2023-01-08T07:06:49.997Z,9.71
2023-01-08T07:10:15.412Z,9.71
2023-01-08T07:13:40.912Z,9.71
2023-01-08T07:17:08.174Z,9.71
2023-01-08T07:20:33.588Z,9.74
2023-01-08T07:23:58.890Z,9.79
2023-01-08T07:27:24.325Z,9.84
2023-01-08T07:30:49.510Z,9.9
2023-01-08T07:34:15.405Z,9.93
2023-01-08T07:37:40.091Z,9.96
2023-01-08T07:41:05.401Z,9.95
2023-01-08T07:44:30.819Z,9.88
2023-01-08T07:47:56.012Z,9.88
2023-01-08T07:51:21.319Z,9.92
2023-01-08T07:54:46.629Z,9.9
2023-01-08T07:58:11.916Z,9.92
2023-01-08T08:01:37.461Z,9.94
2023-01-08T08:05:02.763Z,9.92
2023-01-08T08:08:28.144Z,9.88
2023-01-08T08:11:53.451Z,9.88
2023-01-08T08:15:18.973Z,9.84
2023-01-08T08:18:44.417Z,9.74
2023-01-08T08:22:09.682Z,9.62
2023-01-08T08:25:36.086Z,9.54
2023-01-08T08:29:01.452Z,9.45
2023-01-08T08:32:26.786Z,9.42
2023-01-08T08:35:52.352Z,9.38
2023-01-08T08:39:35.478Z,9.46
2023-01-08T08:43:00.834Z,9.56
2023-01-08T08:46:26.202Z,9.61
2023-01-08T08:49:51.390Z,9.6
2023-01-08T08:53:16.797Z,9.65
2023-01-08T08:56:41.962Z,9.66
2023-01-08T09:00:07.269Z,9.64
2023-01-08T09:03:32.728Z,9.64
2023-01-08T09:06:57.938Z,9.63
2023-01-08T09:10:23.355Z,9.58
2023-01-08T09:13:48.490Z,9.53
2023-01-08T09:17:13.846Z,9.51
2023-01-08T09:20:39.157Z,9.55
2023-01-08T09:24:04.450Z,9.6
2023-01-08T09:27:29.861Z,9.61
2023-01-08T09:30:55.088Z,9.64
2023-01-08T09:34:20.371Z,9.6
2023-01-08T09:37:45.656Z,9.56
2023-01-08T09:41:10.997Z,9.56
2023-01-08T09:44:36.396Z,9.55
2023-01-08T09:48:01.599Z,9.52
2023-01-08T09:51:26.893Z,9.52
2023-01-08T09:54:52.132Z,9.54
2023-01-08T09:58:17.431Z,9.57
2023-01-08T10:01:42.978Z,9.58
2023-01-08T10:05:08.137Z,9.54
2023-01-08T10:08:33.388Z,9.53
2023-01-08T10:11:58.749Z,9.46
2023-01-08T10:15:24.089Z,9.45
2023-01-08T10:18:49.423Z,9.51
2023-01-08T10:22:15.241Z,9.53
2023-01-08T10:25:40.784Z,9.53
2023-01-08T10:29:06.233Z,9.52
2023-01-08T10:32:31.584Z,9.54
2023-01-08T10:35:56.935Z,9.51
2023-01-08T10:39:22.179Z,9.48
2023-01-08T10:42:47.502Z,9.46
2023-01-08T10:46:12.876Z,9.44
2023-01-08T10:49:38.089Z,9.44
2023-01-08T10:53:03.461Z,9.44
2023-01-08T10:56:29.180Z,9.44
2023-01-08T10:59:54.500Z,9.5
2023-01-08T11:03:19.791Z,9.54
2023-01-08T11:06:45.061Z,9.52
2023-01-08T11:10:10.381Z,9.49
2023-01-08T11:13:35.697Z,9.56
2023-01-08T11:17:00.970Z,9.59
2023-01-08T11:20:26.323Z,9.65
2023-01-08T11:23:51.600Z,9.71
2023-01-08T11:27:16.904Z,9.72
2023-01-08T11:30:42.138Z,9.74
2023-01-08T11:34:07.393Z,9.76
2023-01-08T11:37:32.634Z,9.78
2023-01-08T11:40:57.949Z,9.8
2023-01-08T11:44:23.337Z,9.79
2023-01-08T11:47:48.718Z,9.82
2023-01-08T11:51:14.077Z,9.82
2023-01-08T11:54:39.426Z,9.82
2023-01-08T11:58:04.782Z,9.9
2023-01-08T12:01:30.122Z,9.99
2023-01-08T12:04:55.380Z,9.97
2023-01-08T12:08:20.731Z,9.9
2023-01-08T12:11:46.022Z,9.89
2023-01-08T12:15:11.294Z,9.94
2023-01-08T12:18:36.700Z,9.95
2023-01-08T12:22:01.989Z,9.97
2023-01-08T12:25:27.333Z,10.03
2023-01-08T12:28:52.615Z,10.02
2023-01-08T12:32:18.020Z,10
2023-01-08T12:35:43.370Z,10
2023-01-08T12:39:08.728Z,9.99
2023-01-08T12:42:34.125Z,9.97
2023-01-08T12:45:59.607Z,9.92
2023-01-08T12:49:26.340Z,9.85
2023-01-08T12:52:51.677Z,9.81
2023-01-08T12:56:16.937Z,9.74
2023-01-08T12:59:42.318Z,9.66
2023-01-08T13:03:07.735Z,9.6
2023-01-08T13:06:33.004Z,9.57
2023-01-08T13:09:58.425Z,9.55
2023-01-08T13:13:23.806Z,9.51
2023-01-08T13:16:49.202Z,9.49
2023-01-08T13:20:14.576Z,9.49
2023-01-08T13:23:39.809Z,9.46
2023-01-08T13:27:05.204Z,9.45
2023-01-08T13:30:30.858Z,9.47
2023-01-08T13:33:55.901Z,9.45
2023-01-08T13:37:27.506Z,9.43
2023-01-08T13:40:49.808Z,9.47
2023-01-08T13:44:11.783Z,9.46
2023-01-08T13:47:37.058Z,9.48
2023-01-08T13:51:02.387Z,9.52
2023-01-08T13:54:27.699Z,9.57
2023-01-08T13:57:53.108Z,9.6
2023-01-08T14:01:18.607Z,9.66
2023-01-08T14:04:43.817Z,9.7
2023-01-08T14:08:09.198Z,9.67
2023-01-08T14:11:34.492Z,9.66
2023-01-08T14:14:59.877Z,9.62
2023-01-08T14:18:25.206Z,9.64
2023-01-08T14:21:50.485Z,9.65
2023-01-08T14:25:15.777Z,9.65
2023-01-08T14:28:41.063Z,9.64
2023-01-08T15:05:14.959Z,7.73
2023-01-08T15:08:40.176Z,8.73
2023-01-08T15:12:05.441Z,8.93
2023-01-08T15:15:30.693Z,9.06
2023-01-08T15:18:55.960Z,9.17
2023-01-08T15:22:21.252Z,9.31
2023-01-08T15:25:46.491Z,9.38
2023-01-08T15:29:11.755Z,9.49
2023-01-08T15:32:37.176Z,9.58
2023-01-08T15:36:02.271Z,9.66
2023-01-08T15:39:27.533Z,9.72
2023-01-08T15:42:52.748Z,9.78
2023-01-08T15:46:17.989Z,9.77
2023-01-08T15:49:43.217Z,9.77
2023-01-08T15:53:08.486Z,9.77
2023-01-08T15:56:33.783Z,9.73
2023-01-08T15:59:59.012Z,9.64
2023-01-08T16:03:24.273Z,9.66
2023-01-08T16:06:49.479Z,9.66
2023-01-08T16:10:14.751Z,9.6
2023-01-08T16:13:40.013Z,9.56
2023-01-08T16:17:05.248Z,9.6
2023-01-08T16:20:30.470Z,9.62
2023-01-08T16:23:55.730Z,9.67
2023-01-08T16:27:20.974Z,9.67
2023-01-08T16:30:46.246Z,9.67
2023-01-08T16:34:11.482Z,9.68
2023-01-08T16:37:36.727Z,9.68
2023-01-08T16:41:02.021Z,9.66
2023-01-08T16:44:27.266Z,9.69
2023-01-08T16:47:52.836Z,9.76
2023-01-08T16:51:18.203Z,9.79
2023-01-08T16:54:43.581Z,9.78
2023-01-08T16:58:08.958Z,9.78
2023-01-08T17:01:34.388Z,9.76
2023-01-08T17:04:59.681Z,9.73
2023-01-08T17:08:24.977Z,9.7
2023-01-08T17:11:50.415Z,9.74
2023-01-08T17:15:15.852Z,9.77
2023-01-08T17:18:41.218Z,9.79
2023-01-08T17:22:06.655Z,9.8
2023-01-08T17:25:31.941Z,9.78
2023-01-08T17:28:57.378Z,9.76
2023-01-08T17:32:22.786Z,9.78
2023-01-08T17:35:48.159Z,9.83
2023-01-08T17:39:13.642Z,9.88
2023-01-08T17:42:38.899Z,9.9
2023-01-08T17:46:04.302Z,9.92
2023-01-08T17:49:29.542Z,9.87
2023-01-08T17:52:54.869Z,9.84
2023-01-08T17:56:20.198Z,9.85
2023-01-08T17:59:45.475Z,9.89
2023-01-08T18:03:10.847Z,9.95
2023-01-08T18:06:36.188Z,10.01
2023-01-08T18:10:01.480Z,10.04
2023-01-08T18:13:26.813Z,10.08
2023-01-08T18:16:52.161Z,10.11
2023-01-08T18:20:17.407Z,10.16
2023-01-08T18:23:42.758Z,10.19
2023-01-08T18:27:08.042Z,10.15
2023-01-08T18:30:33.379Z,10.18
2023-01-08T18:33:58.654Z,10.22
2023-01-08T18:37:24.009Z,10.23
2023-01-08T18:40:49.366Z,10.21
2023-01-08T18:44:14.687Z,10.18
2023-01-08T18:47:40.152Z,10.16
2023-01-08T18:51:05.574Z,10.19
2023-01-08T18:54:30.785Z,10.27
2023-01-08T18:57:56.078Z,10.34
2023-01-08T19:01:21.508Z,10.38
2023-01-08T19:04:46.691Z,10.39
2023-01-08T19:08:11.920Z,10.42
2023-01-08T19:11:37.247Z,10.43
2023-01-08T19:15:02.485Z,10.47
2023-01-08T19:18:27.770Z,10.49
2023-01-08T19:21:53.093Z,10.53
2023-01-08T19:25:18.313Z,10.56
2023-01-08T19:28:43.639Z,10.56
2023-01-08T19:32:08.894Z,10.52
2023-01-08T19:35:34.216Z,10.51
2023-01-08T19:38:59.489Z,10.49
2023-01-08T19:42:24.750Z,10.47
2023-01-08T19:45:50.077Z,10.41
2023-01-08T19:49:15.316Z,10.38
2023-01-08T19:52:40.593Z,10.34
2023-01-08T19:56:05.900Z,10.24
2023-01-08T19:59:31.161Z,10.15
2023-01-08T20:02:56.437Z,10.14
2023-01-08T20:06:21.743Z,10.16
2023-01-08T20:09:47.009Z,10.17
2023-01-08T20:13:12.345Z,10.16
2023-01-08T20:16:37.688Z,10.12
2023-01-08T20:20:02.886Z,10.12
2023-01-08T20:23:28.148Z,10.13
2023-01-08T20:26:54.305Z,10.13
2023-01-08T20:30:19.628Z,10.11
2023-01-08T20:33:44.927Z,10.16
2023-01-08T20:37:10.221Z,10.21
2023-01-08T20:40:35.645Z,10.18
2023-01-08T20:44:00.980Z,10.12
2023-01-08T20:47:26.351Z,10.07
2023-01-08T20:50:51.597Z,9.97
2023-01-08T20:54:16.929Z,9.89
2023-01-08T20:57:42.221Z,9.84
2023-01-08T21:01:07.733Z,9.73
2023-01-08T21:04:32.956Z,9.66
2023-01-08T21:07:58.136Z,9.61
2023-01-08T21:11:23.469Z,9.49
2023-01-08T21:14:48.814Z,9.45
2023-01-08T21:18:14.154Z,9.45
2023-01-08T21:21:40.632Z,9.5
2023-01-08T21:25:04.764Z,9.52
2023-01-08T21:28:30.052Z,9.56
2023-01-08T21:31:55.401Z,9.58
2023-01-08T21:35:20.683Z,9.61
2023-01-08T21:38:46.046Z,9.67
2023-01-08T21:42:11.310Z,9.69
2023-01-08T21:45:36.740Z,9.69
2023-01-08T21:49:02.004Z,9.68
2023-01-08T21:52:27.394Z,9.68
2023-01-08T21:55:52.694Z,9.68
2023-01-08T21:59:17.980Z,9.67
2023-01-08T22:02:43.277Z,9.63
2023-01-08T22:06:08.604Z,9.61
2023-01-08T22:09:33.955Z,9.59
2023-01-08T22:12:59.304Z,9.55
2023-01-08T22:16:24.659Z,9.42
2023-01-08T22:19:49.916Z,9.31
2023-01-08T22:23:15.230Z,9.15
2023-01-08T22:26:40.574Z,9.03
2023-01-08T22:30:08.382Z,8.97
2023-01-08T22:33:31.168Z,8.97
2023-01-08T22:36:56.533Z,8.97
2023-01-08T22:40:21.895Z,9.01
2023-01-08T22:43:47.170Z,9.06
2023-01-08T22:47:12.519Z,9.07
2023-01-08T22:50:37.808Z,9.08
2023-01-08T22:54:03.109Z,9.15
2023-01-08T22:57:28.477Z,9.2
2023-01-08T23:00:53.800Z,9.21
2023-01-08T23:04:19.181Z,9.15
2023-01-08T23:07:44.410Z,9.09
2023-01-08T23:11:09.706Z,9.06
2023-01-08T23:14:36.040Z,9.05
2023-01-08T23:18:01.334Z,9.1
2023-01-08T23:21:26.648Z,9.11
2023-01-08T23:24:51.963Z,9.04
2023-01-08T23:28:17.268Z,9
2023-01-08T23:31:42.638Z,8.94
2023-01-08T23:35:07.901Z,8.95
2023-01-08T23:38:33.323Z,8.99
2023-01-08T23:41:58.622Z,9.03
2023-01-08T23:45:23.931Z,9.02
2023-01-08T23:48:49.303Z,8.98
2023-01-08T23:52:14.577Z,8.94
2023-01-08T23:55:39.979Z,8.92
2023-01-08T23:59:05.285Z,8.89
